createdAt,value
2019-02-22T00:01:16.670Z,8.80
2019-02-22T00:03:48.413Z,8.80
2019-02-22T00:06:20.104Z,8.80
2019-02-22T00:08:51.785Z,8.80
2019-02-22T00:11:23.520Z,8.80
2019-02-22T00:13:55.191Z,8.80
2019-02-22T00:16:26.869Z,8.80
2019-02-22T00:18:58.620Z,8.80
2019-02-22T00:21:30.292Z,8.80
2019-02-22T00:24:01.985Z,8.80
2019-02-22T00:26:33.682Z,8.80
2019-02-22T00:29:05.456Z,8.80
2019-02-22T00:31:37.194Z,8.80
2019-02-22T00:34:08.973Z,8.80
2019-02-22T00:36:40.646Z,8.80
2019-02-22T00:39:12.488Z,8.80
2019-02-22T00:41:44.232Z,8.80
2019-02-22T00:44:15.931Z,8.80
2019-02-22T00:46:47.646Z,8.80
2019-02-22T00:49:19.366Z,8.70
2019-02-22T00:51:51.044Z,8.70
2019-02-22T00:54:22.804Z,8.70
2019-02-22T00:56:54.553Z,8.70
2019-02-22T00:59:26.328Z,8.70
2019-02-22T01:01:58.039Z,8.70
2019-02-22T01:04:29.713Z,8.70
2019-02-22T01:07:01.398Z,8.60
2019-02-22T01:09:33.140Z,8.70
2019-02-22T01:12:04.837Z,8.60
2019-02-22T01:14:36.525Z,8.70
2019-02-22T01:17:08.224Z,8.70
2019-02-22T01:19:40.001Z,8.70
2019-02-22T01:22:11.845Z,8.70
2019-02-22T01:24:43.573Z,8.70
2019-02-22T01:27:15.369Z,8.70
2019-02-22T01:29:47.137Z,8.70
2019-02-22T01:32:18.935Z,8.70
2019-02-22T01:34:50.723Z,8.70
2019-02-22T01:37:22.487Z,8.70
2019-02-22T01:39:54.276Z,8.70
2019-02-22T01:42:26.148Z,8.60
2019-02-22T01:44:57.829Z,8.60
2019-02-22T01:47:29.603Z,8.60
2019-02-22T01:50:01.292Z,8.60
2019-02-22T01:52:33.070Z,8.50
2019-02-22T01:55:04.876Z,8.60
2019-02-22T01:57:36.560Z,8.50
2019-02-22T02:00:08.563Z,8.50
2019-02-22T02:02:40.276Z,8.50
2019-02-22T02:05:12.228Z,8.50
2019-02-22T02:07:44.078Z,8.50
2019-02-22T02:10:15.790Z,8.50
2019-02-22T02:12:47.512Z,8.50
2019-02-22T02:15:19.209Z,8.50
2019-02-22T02:17:50.902Z,8.50
2019-02-22T02:20:22.640Z,8.50
2019-02-22T02:22:54.426Z,8.50
2019-02-22T02:25:26.121Z,8.60
2019-02-22T02:27:57.922Z,8.60
2019-02-22T02:30:29.614Z,8.50
2019-02-22T02:33:01.390Z,8.60
2019-02-22T02:35:33.099Z,8.60
2019-02-22T02:38:04.808Z,8.60
2019-02-22T02:40:36.525Z,8.60
2019-02-22T02:43:08.336Z,8.50
2019-02-22T02:45:40.186Z,8.60
2019-02-22T02:48:11.930Z,8.60
2019-02-22T02:50:43.700Z,8.60
2019-02-22T02:53:15.446Z,8.60
2019-02-22T02:55:47.269Z,8.60
2019-02-22T02:58:19.147Z,8.60
2019-02-22T03:00:50.938Z,8.60
2019-02-22T03:03:22.650Z,8.60
2019-02-22T03:06:25.734Z,8.60
2019-02-22T03:08:57.536Z,8.60
2019-02-22T03:11:29.322Z,8.60
2019-02-22T03:14:01.034Z,8.60
2019-02-22T03:16:32.813Z,8.60
2019-02-22T03:19:04.488Z,8.60
2019-02-22T03:21:36.325Z,8.60
2019-02-22T03:24:08.022Z,8.60
2019-02-22T03:26:39.793Z,8.60
2019-02-22T03:29:11.492Z,8.60
2019-02-22T03:31:43.174Z,8.60
2019-02-22T03:34:14.888Z,8.60
2019-02-22T03:36:46.665Z,8.60
2019-02-22T03:39:18.414Z,8.60
2019-02-22T03:41:50.187Z,8.60
2019-02-22T03:44:21.909Z,8.50
2019-02-22T03:46:53.607Z,8.60
2019-02-22T03:49:25.294Z,8.60
2019-02-22T03:51:57.490Z,8.50
2019-02-22T03:54:29.286Z,8.50
2019-02-22T03:57:01.019Z,8.50
2019-02-22T03:59:32.835Z,8.50
2019-02-22T04:02:04.634Z,8.50
2019-02-22T04:04:36.565Z,8.50
2019-02-22T04:07:08.299Z,8.60
2019-02-22T04:09:40.046Z,8.60
2019-02-22T04:12:11.775Z,8.60
2019-02-22T04:14:43.468Z,8.50
2019-02-22T04:17:15.230Z,8.60
2019-02-22T04:19:46.960Z,8.60
2019-02-22T04:22:18.618Z,8.50
2019-02-22T04:24:50.403Z,8.50
2019-02-22T04:27:22.094Z,8.50
2019-02-22T04:29:53.801Z,8.50
2019-02-22T04:32:25.472Z,8.50
2019-02-22T04:34:57.278Z,8.50
2019-02-22T04:37:29.052Z,8.50
2019-02-22T04:40:00.770Z,8.50
2019-02-22T04:42:32.511Z,8.60
2019-02-22T04:45:04.267Z,8.60
2019-02-22T04:47:35.949Z,8.60
2019-02-22T04:50:08.257Z,8.60
2019-02-22T04:52:40.057Z,8.60
2019-02-22T04:55:11.779Z,8.60
2019-02-22T04:57:43.570Z,8.60
2019-02-22T05:00:15.359Z,8.60
2019-02-22T05:02:47.009Z,8.60
2019-02-22T05:05:18.744Z,8.50
2019-02-22T05:07:50.533Z,8.50
2019-02-22T05:10:22.244Z,8.50
2019-02-22T05:12:53.998Z,8.50
2019-02-22T05:15:25.775Z,8.50
2019-02-22T05:17:57.505Z,8.50
2019-02-22T05:20:29.239Z,8.40
2019-02-22T05:23:04.431Z,8.40
2019-02-22T05:25:34.344Z,8.40
2019-02-22T05:28:06.076Z,8.40
2019-02-22T05:30:37.777Z,8.40
2019-02-22T05:33:09.562Z,8.40
2019-02-22T05:35:41.258Z,8.40
2019-02-22T05:38:12.952Z,8.40
2019-02-22T05:40:44.645Z,8.50
2019-02-22T05:43:16.429Z,8.50
2019-02-22T05:45:48.311Z,8.50
2019-02-22T05:48:19.997Z,8.50
2019-02-22T05:50:51.857Z,8.50
2019-02-22T05:53:23.642Z,8.40
2019-02-22T05:55:55.371Z,8.40
2019-02-22T05:58:27.161Z,8.40
2019-02-22T06:00:58.929Z,8.40
2019-02-22T06:03:30.696Z,8.50
2019-02-22T06:06:02.542Z,8.50
2019-02-22T06:08:34.240Z,8.50
2019-02-22T06:11:05.902Z,8.60
2019-02-22T06:13:37.690Z,8.60
2019-02-22T06:16:09.430Z,8.60
2019-02-22T06:18:41.214Z,8.60
2019-02-22T06:21:15.273Z,8.60
2019-02-22T06:23:46.387Z,8.60
2019-02-22T06:26:18.110Z,8.60
2019-02-22T06:28:49.948Z,8.60
2019-02-22T06:31:21.728Z,8.60
2019-02-22T06:33:53.584Z,8.60
2019-02-22T06:36:25.298Z,8.60
2019-02-22T06:38:56.984Z,8.60
2019-02-22T06:41:28.807Z,8.60
2019-02-22T06:44:00.613Z,8.70
2019-02-22T06:46:32.351Z,8.70
2019-02-22T06:49:04.129Z,8.70
2019-02-22T06:51:35.854Z,8.80
2019-02-22T06:54:07.713Z,8.80
2019-02-22T06:56:39.500Z,8.80
2019-02-22T06:59:12.603Z,8.80
2019-02-22T07:01:44.424Z,8.80
2019-02-22T07:04:16.311Z,8.80
2019-02-22T07:06:48.635Z,8.80
2019-02-22T07:09:20.451Z,8.80
2019-02-22T07:12:07.045Z,8.80
2019-02-22T07:14:42.057Z,8.80
2019-02-22T07:17:13.960Z,8.90
2019-02-22T07:19:45.687Z,8.80
2019-02-22T07:22:17.435Z,8.80
2019-02-22T07:24:52.798Z,8.80
2019-02-22T07:27:39.500Z,8.90
2019-02-22T07:30:11.695Z,8.90
2019-02-22T07:32:45.405Z,8.90
2019-02-22T07:35:17.191Z,9.00
2019-02-22T07:37:48.922Z,9.00
2019-02-22T07:40:20.710Z,9.10
2019-02-22T07:42:52.484Z,9.10
2019-02-22T07:45:24.255Z,9.10
2019-02-22T07:47:55.999Z,9.10
2019-02-22T07:50:27.692Z,9.20
2019-02-22T07:53:01.942Z,9.30
2019-02-22T07:55:33.652Z,9.30
2019-02-22T07:58:05.459Z,9.30
2019-02-22T08:00:37.252Z,9.30
2019-02-22T08:03:09.053Z,9.10
2019-02-22T08:05:40.766Z,9.10
2019-02-22T08:08:12.508Z,9.10
2019-02-22T08:10:51.735Z,9.10
2019-02-22T08:13:23.462Z,9.10
2019-02-22T08:15:55.110Z,9.10
2019-02-22T08:18:26.778Z,9.10
2019-02-22T08:20:58.504Z,9.00
2019-02-22T08:23:30.628Z,8.80
2019-02-22T08:26:02.440Z,8.70
2019-02-22T08:28:34.215Z,8.70
2019-02-22T08:31:05.873Z,8.80
2019-02-22T08:33:37.661Z,8.80
2019-02-22T08:36:09.425Z,8.90
2019-02-22T08:38:41.187Z,8.80
2019-02-22T08:41:12.928Z,8.90
2019-02-22T08:43:44.808Z,8.90
2019-02-22T08:46:16.552Z,8.90
2019-02-22T08:48:48.328Z,8.80
2019-02-22T08:51:20.123Z,8.80
2019-02-22T08:53:51.813Z,8.70
2019-02-22T08:56:23.537Z,8.70
2019-02-22T08:58:55.195Z,8.70
2019-02-22T09:01:26.938Z,8.90
2019-02-22T09:03:58.643Z,9.10
2019-02-22T09:06:30.379Z,9.10
2019-02-22T09:09:02.111Z,9.20
2019-02-22T09:11:33.849Z,9.10
2019-02-22T09:14:05.666Z,9.10
2019-02-22T09:16:37.627Z,9.10
2019-02-22T09:19:09.355Z,9.10
2019-02-22T09:21:41.113Z,9.10
2019-02-22T09:24:12.923Z,9.00
2019-02-22T09:26:44.581Z,9.00
2019-02-22T09:29:16.295Z,8.90
2019-02-22T09:31:48.088Z,8.90
2019-02-22T09:34:19.865Z,8.80
2019-02-22T09:36:51.546Z,8.80
2019-02-22T09:39:23.447Z,8.70
2019-02-22T09:41:55.202Z,8.70
2019-02-22T09:44:26.972Z,8.70
2019-02-22T09:46:58.702Z,8.70
2019-02-22T09:49:30.443Z,8.70
2019-02-22T09:52:02.146Z,8.80
2019-02-22T09:54:33.978Z,8.90
2019-02-22T09:57:05.734Z,8.80
2019-02-22T09:59:37.554Z,8.90
2019-02-22T10:02:09.272Z,8.90
2019-02-22T10:04:41.043Z,8.90
2019-02-22T10:07:12.734Z,8.90
2019-02-22T10:09:44.656Z,8.90
2019-02-22T10:12:16.318Z,8.90
2019-02-22T10:14:48.104Z,9.00
2019-02-22T10:17:20.925Z,8.90
2019-02-22T10:19:52.733Z,9.00
2019-02-22T10:22:24.472Z,9.10
2019-02-22T10:24:56.251Z,9.20
2019-02-22T10:27:27.970Z,9.30
2019-02-22T10:29:59.811Z,9.50
2019-02-22T10:32:32.997Z,9.60
2019-02-22T10:35:04.715Z,9.60
2019-02-22T10:37:38.137Z,9.60
2019-02-22T10:40:11.374Z,9.60
2019-02-22T10:42:43.223Z,9.80
2019-02-22T10:45:15.111Z,9.80
2019-02-22T10:47:46.891Z,9.90
2019-02-22T10:50:18.683Z,10.00
2019-02-22T10:53:01.445Z,10.10
2019-02-22T10:55:24.007Z,10.10
2019-02-22T10:57:55.889Z,10.00
2019-02-22T11:00:27.666Z,10.00
2019-02-22T11:02:59.453Z,10.20
2019-02-22T11:05:31.120Z,10.40
2019-02-22T11:08:02.937Z,10.80
2019-02-22T11:10:36.883Z,11.10
2019-02-22T11:13:08.604Z,11.50
2019-02-22T11:15:41.282Z,11.80
2019-02-22T11:18:16.038Z,12.10
2019-02-22T11:20:49.540Z,12.30
2019-02-22T11:23:22.207Z,12.70
2019-02-22T11:25:55.014Z,13.00
2019-02-22T11:28:26.820Z,13.20
2019-02-22T11:30:58.528Z,13.50
2019-02-22T11:33:30.286Z,13.70
2019-02-22T11:36:01.972Z,13.80
2019-02-22T11:38:33.700Z,13.90
2019-02-22T11:41:05.541Z,14.10
2019-02-22T11:43:37.310Z,14.30
2019-02-22T11:46:09.018Z,14.30
2019-02-22T11:48:40.819Z,14.40
2019-02-22T11:51:12.661Z,14.50
2019-02-22T11:53:44.341Z,14.60
2019-02-22T11:56:16.126Z,14.60
2019-02-22T11:58:47.871Z,14.80
2019-02-22T12:01:19.635Z,14.80
2019-02-22T12:03:53.459Z,14.90
2019-02-22T12:06:25.557Z,15.00
2019-02-22T12:08:57.373Z,15.10
2019-02-22T12:11:29.133Z,15.20
2019-02-22T12:14:00.903Z,15.30
2019-02-22T12:16:32.599Z,15.40
2019-02-22T12:19:04.405Z,15.40
2019-02-22T12:21:36.167Z,15.50
2019-02-22T12:24:07.889Z,15.50
2019-02-22T12:26:39.728Z,15.40
2019-02-22T12:29:11.467Z,15.50
2019-02-22T12:31:43.189Z,15.40
2019-02-22T12:34:14.979Z,15.40
2019-02-22T12:36:46.675Z,15.50
2019-02-22T12:39:18.669Z,15.60
2019-02-22T12:41:50.477Z,15.60
2019-02-22T12:44:24.629Z,15.50
2019-02-22T12:46:56.398Z,15.60
2019-02-22T12:49:28.150Z,15.60
2019-02-22T12:51:59.860Z,15.60
2019-02-22T12:54:31.600Z,15.50
2019-02-22T12:57:03.518Z,15.50
2019-02-22T12:59:35.460Z,15.50
2019-02-22T13:02:07.165Z,15.30
2019-02-22T13:04:38.838Z,15.20
2019-02-22T13:07:10.517Z,15.30
2019-02-22T13:09:42.272Z,15.40
2019-02-22T13:12:16.657Z,15.50
2019-02-22T13:14:47.469Z,15.40
2019-02-22T13:17:30.268Z,15.40
2019-02-22T13:19:52.739Z,15.40
2019-02-22T13:22:24.558Z,15.60
2019-02-22T13:24:56.216Z,15.60
2019-02-22T13:27:27.990Z,15.70
2019-02-22T13:29:59.702Z,15.80
2019-02-22T13:32:31.464Z,15.80
2019-02-22T13:35:03.139Z,15.90
2019-02-22T13:37:34.909Z,15.90
2019-02-22T13:40:07.691Z,15.80
2019-02-22T13:42:40.128Z,15.90
2019-02-22T13:45:11.996Z,16.00
2019-02-22T13:47:43.763Z,16.10
2019-02-22T13:50:15.561Z,16.10
2019-02-22T13:52:47.347Z,15.90
2019-02-22T13:55:19.184Z,15.60
2019-02-22T13:57:50.909Z,15.30
2019-02-22T14:00:22.682Z,14.90
2019-02-22T14:02:54.525Z,14.60
2019-02-22T14:05:26.303Z,14.40
2019-02-22T14:07:58.247Z,14.30
2019-02-22T14:10:29.943Z,14.40
2019-02-22T14:13:01.787Z,14.20
2019-02-22T14:15:37.913Z,14.10
2019-02-22T14:18:07.075Z,13.90
2019-02-22T14:20:39.025Z,13.80
2019-02-22T14:23:10.759Z,13.70
2019-02-22T14:25:42.601Z,13.60
2019-02-22T14:28:14.491Z,13.50
2019-02-22T14:30:46.235Z,13.60
2019-02-22T14:33:18.095Z,13.80
2019-02-22T14:35:50.003Z,13.90
2019-02-22T14:38:22.172Z,13.80
2019-02-22T14:40:55.009Z,13.80
2019-02-22T14:43:26.831Z,13.60
2019-02-22T14:45:58.701Z,13.60
2019-02-22T14:48:30.743Z,13.70
2019-02-22T14:51:02.593Z,13.70
2019-02-22T14:53:34.412Z,13.60
2019-02-22T14:56:06.215Z,13.50
2019-02-22T14:58:38.114Z,13.60
2019-02-22T15:01:09.962Z,13.70
2019-02-22T15:03:41.820Z,13.80
2019-02-22T15:06:13.722Z,13.90
2019-02-22T15:08:45.558Z,14.10
2019-02-22T15:11:18.568Z,14.10
2019-02-22T15:13:50.414Z,14.10
2019-02-22T15:16:39.216Z,14.00
2019-02-22T15:19:11.215Z,13.90
2019-02-22T15:21:43.127Z,13.80
2019-02-22T15:24:14.892Z,13.70
2019-02-22T15:26:47.101Z,13.80
2019-02-22T15:29:19.046Z,13.70
2019-02-22T15:31:50.826Z,13.70
2019-02-22T15:34:22.654Z,13.60
2019-02-22T15:36:54.457Z,13.60
2019-02-22T15:39:26.412Z,13.50
2019-02-22T15:41:58.420Z,13.50
2019-02-22T15:44:30.213Z,13.50
2019-02-22T15:47:11.370Z,13.60
2019-02-22T15:49:35.451Z,13.50
2019-02-22T15:52:07.301Z,13.50
2019-02-22T15:54:39.150Z,13.60
2019-02-22T15:57:10.929Z,13.60
2019-02-22T15:59:42.637Z,13.50
2019-02-22T16:02:14.421Z,13.50
2019-02-22T16:05:05.143Z,13.50
2019-02-22T16:07:44.201Z,13.40
2019-02-22T16:10:10.374Z,13.30
2019-02-22T16:12:42.286Z,13.30
2019-02-22T16:15:15.809Z,13.30
2019-02-22T16:17:48.492Z,13.30
2019-02-22T16:20:20.447Z,13.30
2019-02-22T16:22:52.183Z,13.30
2019-02-22T16:25:23.889Z,13.30
2019-02-22T16:27:55.640Z,13.30
2019-02-22T16:30:31.157Z,13.10
2019-02-22T16:33:03.256Z,13.10
2019-02-22T16:35:35.115Z,13.00
2019-02-22T16:38:06.851Z,12.90
2019-02-22T16:40:38.699Z,12.80
2019-02-22T16:43:10.653Z,12.80
2019-02-22T16:45:42.552Z,12.80
2019-02-22T16:48:14.466Z,12.70
2019-02-22T16:50:46.294Z,12.60
2019-02-22T16:53:18.150Z,12.60
2019-02-22T16:55:50.030Z,12.50
2019-02-22T16:58:21.889Z,12.50
2019-02-22T17:00:53.706Z,12.40
2019-02-22T17:03:25.510Z,12.30
2019-02-22T17:05:57.706Z,12.30
2019-02-22T17:08:35.518Z,12.20
2019-02-22T17:11:08.672Z,12.20
2019-02-22T17:13:56.547Z,12.10
2019-02-22T17:16:28.744Z,12.00
2019-02-22T17:19:02.156Z,12.00
2019-02-22T17:21:34.093Z,12.00
2019-02-22T17:24:06.098Z,12.00
2019-02-22T17:26:38.025Z,12.00
2019-02-22T17:29:09.795Z,12.00
2019-02-22T17:31:41.607Z,12.00
2019-02-22T17:34:13.483Z,12.00
2019-02-22T17:36:45.293Z,12.00
2019-02-22T17:39:17.156Z,12.00
2019-02-22T17:41:48.937Z,12.00
2019-02-22T17:44:20.853Z,11.90
2019-02-22T17:46:57.718Z,11.90
2019-02-22T17:49:27.336Z,11.90
2019-02-22T17:51:59.224Z,11.90
2019-02-22T17:54:31.023Z,11.90
2019-02-22T17:57:02.930Z,11.80
2019-02-22T17:59:34.733Z,11.80
2019-02-22T18:02:06.675Z,11.80
2019-02-22T18:04:38.484Z,11.80
2019-02-22T18:07:10.333Z,11.80
2019-02-22T18:09:42.103Z,11.80
2019-02-22T18:12:13.843Z,11.80
2019-02-22T18:14:48.008Z,11.80
2019-02-22T18:17:19.851Z,11.80
2019-02-22T18:19:51.724Z,11.80
2019-02-22T18:22:26.020Z,11.80
2019-02-22T18:24:56.922Z,11.90
2019-02-22T18:27:28.623Z,11.90
2019-02-22T18:30:00.318Z,11.90
2019-02-22T18:32:32.100Z,11.90
2019-02-22T18:35:03.887Z,11.90
2019-02-22T18:37:35.675Z,11.90
2019-02-22T18:40:09.822Z,11.90
2019-02-22T18:42:41.717Z,11.80
2019-02-22T18:45:13.538Z,11.80
2019-02-22T18:47:45.306Z,11.80
2019-02-22T18:50:17.112Z,11.70
2019-02-22T18:52:48.790Z,11.70
2019-02-22T18:55:20.525Z,11.70
2019-02-22T18:57:52.282Z,11.60
2019-02-22T19:00:24.077Z,11.60
2019-02-22T19:02:55.847Z,11.60
2019-02-22T19:05:27.568Z,11.60
2019-02-22T19:07:59.348Z,11.50
2019-02-22T19:10:31.045Z,11.50
2019-02-22T19:13:02.750Z,11.50
2019-02-22T19:15:34.539Z,11.40
2019-02-22T19:18:06.308Z,11.40
2019-02-22T19:20:39.182Z,11.30
2019-02-22T19:23:10.897Z,11.30
2019-02-22T19:25:42.617Z,11.20
2019-02-22T19:28:14.288Z,11.10
2019-02-22T19:30:46.061Z,11.00
2019-02-22T19:33:17.777Z,11.00
2019-02-22T19:35:49.549Z,10.90
2019-02-22T19:38:21.338Z,10.80
2019-02-22T19:40:53.080Z,10.80
2019-02-22T19:43:24.734Z,10.70
2019-02-22T19:45:56.516Z,10.60
2019-02-22T19:48:28.216Z,10.50
2019-02-22T19:50:59.948Z,10.50
2019-02-22T19:53:31.678Z,10.40
2019-02-22T19:56:03.816Z,10.30
2019-02-22T19:58:35.530Z,10.30
2019-02-22T20:01:07.336Z,10.20
2019-02-22T20:03:39.036Z,10.20
2019-02-22T20:06:10.784Z,10.10
2019-02-22T20:08:42.544Z,10.10
2019-02-22T20:11:14.350Z,10.00
2019-02-22T20:13:46.104Z,10.00
2019-02-22T20:16:17.824Z,10.00
2019-02-22T20:18:49.618Z,10.00
2019-02-22T20:21:21.357Z,10.00
2019-02-22T20:23:53.072Z,9.90
2019-02-22T20:26:24.854Z,9.90
2019-02-22T20:28:56.542Z,9.90
2019-02-22T20:31:28.420Z,9.80
2019-02-22T20:34:00.136Z,9.80
2019-02-22T20:36:31.855Z,9.80
2019-02-22T20:39:05.226Z,9.70
2019-02-22T20:41:36.982Z,9.70
2019-02-22T20:44:08.731Z,9.70
2019-02-22T20:46:40.535Z,9.70
2019-02-22T20:49:12.341Z,9.60
2019-02-22T20:51:44.213Z,9.60
2019-02-22T20:54:16.021Z,9.50
2019-02-22T20:56:47.712Z,9.50
2019-02-22T20:59:19.786Z,9.50
2019-02-22T21:01:51.523Z,9.50
2019-02-22T21:04:23.221Z,9.50
2019-02-22T21:06:54.953Z,9.50
2019-02-22T21:09:26.715Z,9.50
2019-02-22T21:11:58.438Z,9.40
2019-02-22T21:14:30.235Z,9.40
2019-02-22T21:17:01.923Z,9.40
2019-02-22T21:19:33.602Z,9.40
2019-02-22T21:22:05.283Z,9.30
2019-02-22T21:24:36.967Z,9.30
2019-02-22T21:27:08.689Z,9.30
2019-02-22T21:29:40.449Z,9.30
2019-02-22T21:32:12.237Z,9.30
2019-02-22T21:34:43.925Z,9.30
2019-02-22T21:37:15.617Z,9.20
2019-02-22T21:39:47.303Z,9.30
2019-02-22T21:42:20.481Z,9.20
2019-02-22T21:44:52.350Z,9.20
2019-02-22T21:47:24.073Z,9.20
2019-02-22T21:49:55.849Z,9.20
2019-02-22T21:52:27.591Z,9.20
2019-02-22T21:54:59.401Z,9.20
2019-02-22T21:57:31.208Z,9.20
2019-02-22T22:00:02.900Z,9.20
2019-02-22T22:02:34.664Z,9.10
2019-02-22T22:05:06.852Z,9.10
2019-02-22T22:07:38.592Z,9.00
2019-02-22T22:10:10.304Z,9.00
2019-02-22T22:12:42.010Z,9.00
2019-02-22T22:15:13.750Z,9.00
2019-02-22T22:17:45.439Z,9.00
2019-02-22T22:20:17.256Z,8.90
2019-02-22T22:22:49.014Z,8.90
2019-02-22T22:25:20.824Z,8.90
2019-02-22T22:27:52.549Z,8.90
2019-02-22T22:30:24.371Z,8.90
2019-02-22T22:32:56.177Z,8.90
2019-02-22T22:35:27.886Z,8.90
2019-02-22T22:37:59.580Z,8.90
2019-02-22T22:40:31.338Z,8.80
2019-02-22T22:43:03.045Z,8.80
2019-02-22T22:45:34.858Z,8.80
2019-02-22T22:48:06.819Z,8.80
2019-02-22T22:50:38.598Z,8.80
2019-02-22T22:53:10.317Z,8.80
2019-02-22T22:55:42.035Z,8.80
2019-02-22T22:58:14.963Z,8.90
2019-02-22T23:01:07.481Z,8.90
2019-02-22T23:03:39.351Z,8.90
2019-02-22T23:06:12.044Z,8.90
2019-02-22T23:08:44.093Z,9.00
2019-02-22T23:11:15.796Z,9.00
2019-02-22T23:13:47.515Z,9.00
2019-02-22T23:16:19.299Z,9.00
2019-02-22T23:19:01.554Z,9.00
2019-02-22T23:21:24.886Z,9.10
2019-02-22T23:23:56.603Z,9.10
2019-02-22T23:26:28.411Z,9.00
2019-02-22T23:29:01.874Z,9.00
2019-02-22T23:31:33.955Z,9.10
2019-02-22T23:34:05.754Z,9.10
2019-02-22T23:36:37.590Z,9.10
2019-02-22T23:39:09.758Z,9.10
2019-02-22T23:41:41.538Z,9.10
2019-02-22T23:44:13.262Z,9.10
2019-02-22T23:46:45.017Z,9.10
2019-02-22T23:49:16.734Z,9.10
2019-02-22T23:51:48.528Z,9.10
2019-02-22T23:54:20.333Z,9.10
2019-02-22T23:56:52.110Z,9.00
2019-02-22T23:59:23.812Z,9.00
